createdAt,value
2019-03-18T00:01:25.753Z,1.97
2019-03-18T00:03:56.827Z,2.00
2019-03-18T00:06:25.927Z,1.83
2019-03-18T00:08:55.020Z,1.77
2019-03-18T00:11:24.119Z,1.93
2019-03-18T00:13:54.285Z,2.20
2019-03-18T00:16:23.687Z,1.70
2019-03-18T00:18:52.796Z,1.80
2019-03-18T00:21:22.200Z,2.70
2019-03-18T00:23:51.292Z,2.17
2019-03-18T00:26:20.399Z,2.27
2019-03-18T00:28:49.489Z,2.10
2019-03-18T00:31:18.664Z,1.67
2019-03-18T00:33:47.764Z,2.50
2019-03-18T00:36:16.884Z,1.63
2019-03-18T00:38:45.968Z,2.00
2019-03-18T00:41:15.068Z,1.70
2019-03-18T00:43:44.180Z,1.70
2019-03-18T00:46:13.280Z,1.80
2019-03-18T00:48:42.388Z,1.77
2019-03-18T00:51:11.492Z,2.20
2019-03-18T00:53:40.607Z,1.77
2019-03-18T00:56:09.688Z,2.03
2019-03-18T00:58:38.787Z,1.80
2019-03-18T01:01:07.976Z,1.90
2019-03-18T01:03:37.072Z,2.03
2019-03-18T01:06:06.507Z,2.13
2019-03-18T01:08:35.592Z,2.00
2019-03-18T01:11:05.260Z,1.50
2019-03-18T01:13:34.334Z,2.10
2019-03-18T01:16:03.462Z,1.90
2019-03-18T01:18:32.551Z,1.87
2019-03-18T01:21:01.654Z,1.80
2019-03-18T01:23:30.746Z,1.60
2019-03-18T01:25:59.842Z,1.50
2019-03-18T01:28:28.938Z,1.63
2019-03-18T01:30:58.063Z,1.53
2019-03-18T01:33:27.175Z,1.67
2019-03-18T01:35:56.274Z,1.50
2019-03-18T01:38:25.379Z,1.40
2019-03-18T01:40:54.459Z,1.30
2019-03-18T01:43:23.872Z,1.67
2019-03-18T01:45:53.004Z,2.00
2019-03-18T01:48:22.084Z,1.50
2019-03-18T01:50:51.183Z,1.53
2019-03-18T01:53:20.272Z,1.20
2019-03-18T01:55:49.367Z,1.43
2019-03-18T01:58:18.447Z,1.70
2019-03-18T02:00:47.547Z,1.43
2019-03-18T02:03:16.646Z,1.60
2019-03-18T02:05:45.752Z,1.50
2019-03-18T02:08:14.834Z,1.90
2019-03-18T02:10:44.011Z,1.70
2019-03-18T02:13:13.118Z,1.63
2019-03-18T02:15:52.847Z,1.73
2019-03-18T02:18:13.081Z,1.93
2019-03-18T02:20:42.177Z,2.20
2019-03-18T02:23:11.308Z,2.47
2019-03-18T02:25:40.641Z,1.90
2019-03-18T02:28:09.806Z,2.10
2019-03-18T02:30:38.924Z,2.17
2019-03-18T02:33:08.031Z,1.87
2019-03-18T02:35:37.152Z,1.90
2019-03-18T02:38:06.257Z,2.10
2019-03-18T02:40:35.343Z,2.27
2019-03-18T02:43:04.444Z,2.10
2019-03-18T02:45:33.914Z,2.20
2019-03-18T02:48:03.027Z,2.37
2019-03-18T02:50:32.104Z,2.00
2019-03-18T02:53:01.217Z,2.20
2019-03-18T02:55:30.321Z,2.10
2019-03-18T02:57:59.474Z,1.90
2019-03-18T03:00:28.567Z,2.37
2019-03-18T03:02:57.651Z,1.60
2019-03-18T03:05:27.099Z,1.70
2019-03-18T03:07:56.233Z,1.90
2019-03-18T03:10:25.401Z,1.57
2019-03-18T03:12:55.219Z,1.60
2019-03-18T03:15:24.325Z,1.90
2019-03-18T03:17:53.412Z,1.70
2019-03-18T03:20:22.514Z,1.63
2019-03-18T03:22:51.599Z,1.73
2019-03-18T03:25:24.533Z,1.80
2019-03-18T03:27:51.512Z,1.80
2019-03-18T03:30:20.626Z,1.60
2019-03-18T03:32:49.712Z,1.70
2019-03-18T03:35:18.898Z,1.60
2019-03-18T03:37:47.972Z,1.63
2019-03-18T03:40:17.091Z,1.40
2019-03-18T03:42:46.249Z,1.70
2019-03-18T03:45:15.445Z,1.70
2019-03-18T03:47:44.613Z,1.60
2019-03-18T03:50:13.979Z,2.23
2019-03-18T03:52:43.142Z,1.70
2019-03-18T03:55:12.243Z,1.73
2019-03-18T03:57:41.332Z,1.80
2019-03-18T04:00:10.452Z,1.87
2019-03-18T04:02:39.839Z,2.23
2019-03-18T04:05:09.061Z,2.00
2019-03-18T04:07:38.224Z,1.80
2019-03-18T04:10:07.495Z,1.47
2019-03-18T04:12:36.660Z,1.47
2019-03-18T04:15:05.852Z,1.87
2019-03-18T04:17:34.967Z,1.90
2019-03-18T04:20:04.505Z,1.70
2019-03-18T04:22:33.624Z,1.57
2019-03-18T04:25:03.052Z,1.77
2019-03-18T04:27:32.473Z,2.30
2019-03-18T04:30:01.843Z,1.77
2019-03-18T04:32:31.910Z,2.70
2019-03-18T04:35:01.015Z,1.87
2019-03-18T04:37:31.276Z,1.87
2019-03-18T04:40:00.371Z,1.70
2019-03-18T04:42:29.489Z,2.47
2019-03-18T04:44:58.585Z,1.80
2019-03-18T04:47:27.696Z,2.47
2019-03-18T04:49:56.873Z,2.40
2019-03-18T04:52:25.998Z,2.60
2019-03-18T04:54:55.117Z,2.80
2019-03-18T04:57:24.219Z,2.17
2019-03-18T04:59:53.309Z,3.10
2019-03-18T05:02:22.440Z,2.57
2019-03-18T05:04:51.523Z,2.13
2019-03-18T05:07:20.625Z,2.70
2019-03-18T05:09:49.715Z,3.07
2019-03-18T05:12:18.824Z,2.60
2019-03-18T05:14:47.908Z,2.70
2019-03-18T05:17:26.204Z,2.77
2019-03-18T05:19:47.801Z,2.47
2019-03-18T05:22:16.905Z,2.63
2019-03-18T05:24:45.979Z,2.30
2019-03-18T05:27:15.079Z,2.10
2019-03-18T05:29:44.396Z,3.43
2019-03-18T05:32:13.506Z,3.00
2019-03-18T05:34:42.604Z,2.30
2019-03-18T05:37:11.996Z,2.10
2019-03-18T05:39:41.125Z,3.30
2019-03-18T05:42:10.240Z,3.10
2019-03-18T05:44:39.328Z,3.10
2019-03-18T05:47:08.451Z,4.73
2019-03-18T05:49:37.544Z,3.20
2019-03-18T05:52:06.650Z,3.57
2019-03-18T05:54:35.772Z,3.03
2019-03-18T05:57:04.880Z,3.50
2019-03-18T05:59:34.009Z,3.60
2019-03-18T06:02:03.109Z,3.87
2019-03-18T06:04:32.218Z,4.13
2019-03-18T06:07:01.324Z,4.80
2019-03-18T06:09:30.444Z,4.00
2019-03-18T06:11:59.615Z,3.33
2019-03-18T06:14:28.723Z,3.93
2019-03-18T06:16:57.812Z,3.97
2019-03-18T06:19:26.927Z,3.70
2019-03-18T06:21:56.036Z,4.40
2019-03-18T06:24:25.164Z,4.83
2019-03-18T06:26:54.583Z,4.83
2019-03-18T06:29:23.700Z,4.80
2019-03-18T06:31:52.816Z,5.17
2019-03-18T06:34:21.913Z,3.70
2019-03-18T06:36:51.045Z,3.80
2019-03-18T06:39:20.399Z,3.30
2019-03-18T06:41:49.513Z,3.20
2019-03-18T06:44:18.599Z,4.43
2019-03-18T06:46:47.708Z,4.13
2019-03-18T06:49:16.806Z,3.80
2019-03-18T06:51:45.916Z,3.93
2019-03-18T06:54:15.004Z,4.37
2019-03-18T06:56:44.124Z,3.10
2019-03-18T06:59:13.232Z,3.67
2019-03-18T07:01:42.323Z,3.37
2019-03-18T07:04:11.418Z,4.20
2019-03-18T07:06:40.528Z,4.00
2019-03-18T07:09:09.716Z,5.80
2019-03-18T07:11:38.845Z,4.10
2019-03-18T07:14:07.953Z,4.70
2019-03-18T07:16:38.048Z,4.33
2019-03-18T07:19:07.194Z,4.60
2019-03-18T07:21:36.308Z,5.00
2019-03-18T07:24:05.455Z,4.37
2019-03-18T07:26:34.551Z,4.90
2019-03-18T07:29:03.689Z,4.23
2019-03-18T07:31:32.779Z,3.40
2019-03-18T07:34:01.902Z,4.60
2019-03-18T07:36:31.033Z,3.97
2019-03-18T07:39:00.118Z,4.67
2019-03-18T07:41:29.236Z,4.30
2019-03-18T07:43:58.327Z,4.43
2019-03-18T07:46:27.434Z,4.00
2019-03-18T07:48:56.522Z,4.80
2019-03-18T07:51:25.629Z,4.20
2019-03-18T07:53:54.715Z,4.50
2019-03-18T07:56:23.812Z,4.93
2019-03-18T07:58:52.912Z,4.87
2019-03-18T08:01:22.029Z,4.33
2019-03-18T08:03:51.424Z,3.93
2019-03-18T08:06:20.533Z,4.50
2019-03-18T08:08:49.599Z,4.43
2019-03-18T08:11:18.740Z,4.60
2019-03-18T08:13:48.911Z,5.73
2019-03-18T08:16:18.002Z,3.73
2019-03-18T08:18:47.089Z,4.50
2019-03-18T08:21:16.185Z,4.20
2019-03-18T08:23:45.277Z,4.87
2019-03-18T08:26:14.384Z,4.50
2019-03-18T08:28:43.465Z,3.90
2019-03-18T08:31:12.588Z,4.07
2019-03-18T08:33:41.752Z,4.40
2019-03-18T08:36:10.864Z,4.57
2019-03-18T08:38:39.968Z,4.10
2019-03-18T08:41:09.064Z,6.00
2019-03-18T08:43:38.178Z,3.73
2019-03-18T08:46:08.161Z,3.83
2019-03-18T08:48:37.256Z,4.63
2019-03-18T08:51:06.697Z,3.30
2019-03-18T08:53:35.798Z,4.00
2019-03-18T08:56:04.899Z,3.37
2019-03-18T08:58:34.004Z,3.63
2019-03-18T09:01:03.167Z,3.70
2019-03-18T09:03:32.280Z,3.57
2019-03-18T09:06:01.372Z,3.60
2019-03-18T09:08:30.452Z,3.30
2019-03-18T09:10:59.590Z,3.40
2019-03-18T09:13:28.752Z,3.27
2019-03-18T09:15:57.920Z,2.80
2019-03-18T09:18:27.008Z,3.73
2019-03-18T09:20:56.121Z,3.23
2019-03-18T09:23:25.213Z,4.20
2019-03-18T09:25:54.320Z,3.53
2019-03-18T09:28:23.425Z,3.27
2019-03-18T09:30:52.528Z,4.90
2019-03-18T09:33:21.948Z,5.13
2019-03-18T09:35:51.064Z,4.13
2019-03-18T09:38:20.187Z,2.80
2019-03-18T09:40:49.273Z,2.43
2019-03-18T09:43:18.367Z,2.40
2019-03-18T09:45:47.713Z,2.53
2019-03-18T09:48:16.858Z,2.47
2019-03-18T09:50:45.965Z,2.13
2019-03-18T09:53:15.056Z,2.80
2019-03-18T09:55:44.142Z,2.70
2019-03-18T09:58:13.245Z,3.00
2019-03-18T10:00:42.664Z,2.80
2019-03-18T10:03:11.748Z,3.47
2019-03-18T10:05:43.718Z,3.63
2019-03-18T10:08:11.652Z,4.70
2019-03-18T10:10:40.777Z,4.30
2019-03-18T10:13:09.876Z,4.63
2019-03-18T10:15:39.005Z,5.53
2019-03-18T10:18:08.098Z,4.43
2019-03-18T10:20:37.196Z,5.73
2019-03-18T10:23:06.315Z,4.03
2019-03-18T10:25:35.419Z,5.40
2019-03-18T10:28:04.540Z,4.20
2019-03-18T10:30:34.051Z,4.80
2019-03-18T10:33:03.337Z,5.80
2019-03-18T10:35:32.423Z,4.73
2019-03-18T10:38:01.545Z,4.67
2019-03-18T10:40:30.648Z,5.10
2019-03-18T10:42:59.829Z,4.63
2019-03-18T10:45:28.941Z,5.13
2019-03-18T10:47:59.056Z,4.17
2019-03-18T10:50:28.537Z,4.33
2019-03-18T10:52:57.638Z,4.97
2019-03-18T10:55:26.752Z,2.30
2019-03-18T10:57:55.840Z,2.30
2019-03-18T11:00:24.936Z,3.23
2019-03-18T11:02:54.016Z,3.77
2019-03-18T11:05:23.156Z,3.27
2019-03-18T11:07:52.311Z,4.77
2019-03-18T11:10:21.433Z,4.37
2019-03-18T11:12:51.470Z,5.20
2019-03-18T11:15:20.590Z,5.40
2019-03-18T11:17:49.677Z,4.30
2019-03-18T11:20:18.848Z,9.97
2019-03-18T11:22:48.128Z,7.00
2019-03-18T11:25:17.216Z,4.77
2019-03-18T11:27:46.328Z,4.93
2019-03-18T11:30:15.927Z,4.83
2019-03-18T11:32:45.091Z,2.57
2019-03-18T11:35:14.250Z,1.70
2019-03-18T11:37:43.389Z,2.00
2019-03-18T11:40:12.721Z,2.00
2019-03-18T11:42:41.904Z,2.23
2019-03-18T11:45:11.020Z,2.13
2019-03-18T11:47:40.119Z,2.50
2019-03-18T11:50:11.293Z,1.87
2019-03-18T11:52:40.487Z,2.13
2019-03-18T11:55:10.472Z,1.83
2019-03-18T11:57:39.561Z,2.70
2019-03-18T12:00:09.920Z,2.30
2019-03-18T12:02:39.015Z,1.90
2019-03-18T12:05:09.500Z,2.70
2019-03-18T12:07:38.585Z,2.80
2019-03-18T12:10:09.745Z,3.47
2019-03-18T12:12:38.854Z,3.50
2019-03-18T12:15:08.540Z,3.47
2019-03-18T12:17:37.624Z,4.03
2019-03-18T12:20:07.153Z,4.37
2019-03-18T12:22:36.256Z,4.50
2019-03-18T12:25:05.620Z,4.20
2019-03-18T12:27:34.864Z,5.00
2019-03-18T12:30:05.216Z,4.10
2019-03-18T12:32:34.389Z,4.33
2019-03-18T12:35:03.748Z,4.17
2019-03-18T12:37:32.853Z,5.20
2019-03-18T12:40:02.027Z,4.60
2019-03-18T12:42:32.300Z,4.30
2019-03-18T12:45:01.449Z,4.13
2019-03-18T12:47:30.597Z,3.50
2019-03-18T12:50:00.665Z,4.40
2019-03-18T12:52:29.775Z,4.00
2019-03-18T12:54:58.873Z,3.53
2019-03-18T12:57:28.005Z,4.97
2019-03-18T12:59:57.096Z,3.70
2019-03-18T13:02:26.291Z,4.33
2019-03-18T13:04:55.380Z,5.27
2019-03-18T13:07:24.496Z,4.10
2019-03-18T13:09:53.590Z,4.70
2019-03-18T13:12:22.719Z,4.77
2019-03-18T13:14:51.813Z,4.00
2019-03-18T13:17:20.941Z,4.83
2019-03-18T13:19:50.389Z,4.70
2019-03-18T13:22:19.504Z,4.30
2019-03-18T13:24:48.603Z,4.43
2019-03-18T13:27:17.717Z,4.13
2019-03-18T13:29:47.888Z,4.47
2019-03-18T13:32:17.036Z,4.80
2019-03-18T13:34:46.144Z,4.30
2019-03-18T13:37:15.260Z,4.03
2019-03-18T13:39:44.384Z,4.10
2019-03-18T13:42:13.483Z,4.40
2019-03-18T13:44:42.596Z,4.53
2019-03-18T13:47:13.468Z,4.50
2019-03-18T13:49:42.935Z,4.20
2019-03-18T13:52:12.017Z,4.00
2019-03-18T13:54:41.147Z,4.63
2019-03-18T13:57:10.457Z,3.90
2019-03-18T13:59:39.612Z,3.87
2019-03-18T14:02:08.780Z,4.17
2019-03-18T14:04:37.863Z,4.70
2019-03-18T14:07:07.016Z,4.37
2019-03-18T14:09:36.120Z,4.40
2019-03-18T14:12:05.311Z,3.30
2019-03-18T14:14:34.421Z,4.37
2019-03-18T14:17:03.803Z,4.70
2019-03-18T14:19:32.912Z,3.90
2019-03-18T14:22:01.992Z,3.70
2019-03-18T14:24:31.101Z,2.70
2019-03-18T14:27:00.261Z,2.90
2019-03-18T14:29:29.388Z,3.10
2019-03-18T14:31:58.479Z,3.13
2019-03-18T14:34:27.677Z,3.43
2019-03-18T14:36:57.276Z,3.30
2019-03-18T14:39:26.390Z,3.47
2019-03-18T14:41:55.501Z,3.70
2019-03-18T14:44:24.590Z,4.40
2019-03-18T14:46:53.952Z,3.73
2019-03-18T14:49:23.291Z,4.60
2019-03-18T14:51:52.388Z,4.40
2019-03-18T14:54:21.489Z,4.37
2019-03-18T14:56:50.595Z,4.67
2019-03-18T14:59:19.757Z,5.53
2019-03-18T15:01:48.900Z,4.90
2019-03-18T15:04:18.005Z,4.00
2019-03-18T15:06:47.120Z,3.23
2019-03-18T15:09:16.223Z,3.77
2019-03-18T15:11:45.318Z,4.33
2019-03-18T15:14:14.412Z,3.70
2019-03-18T15:16:43.524Z,3.90
2019-03-18T15:19:12.652Z,3.87
2019-03-18T15:21:41.743Z,4.30
2019-03-18T15:24:16.798Z,3.50
2019-03-18T15:26:41.646Z,3.23
2019-03-18T15:29:10.971Z,3.13
2019-03-18T15:31:40.061Z,3.63
2019-03-18T15:34:09.416Z,4.50
2019-03-18T15:36:38.512Z,3.70
2019-03-18T15:39:07.663Z,3.77
2019-03-18T15:41:36.765Z,4.43
2019-03-18T15:44:05.868Z,4.00
2019-03-18T15:46:34.989Z,4.30
2019-03-18T15:49:04.175Z,6.30
2019-03-18T15:51:33.282Z,5.20
2019-03-18T15:54:02.381Z,4.03
2019-03-18T15:56:31.507Z,4.57
2019-03-18T15:59:00.584Z,5.03
2019-03-18T16:01:30.005Z,4.90
2019-03-18T16:03:59.121Z,4.40
2019-03-18T16:06:28.200Z,4.10
2019-03-18T16:08:57.287Z,6.03
2019-03-18T16:11:26.368Z,4.00
2019-03-18T16:13:55.459Z,4.00
2019-03-18T16:16:24.549Z,4.20
2019-03-18T16:18:53.656Z,4.50
2019-03-18T16:21:22.799Z,3.33
2019-03-18T16:23:51.948Z,5.60
2019-03-18T16:26:21.040Z,4.77
2019-03-18T16:28:50.154Z,4.33
2019-03-18T16:31:19.273Z,4.90
2019-03-18T16:33:48.425Z,4.07
2019-03-18T16:36:17.517Z,5.03
2019-03-18T16:38:46.641Z,3.87
2019-03-18T16:41:15.802Z,4.00
2019-03-18T16:43:44.909Z,4.87
2019-03-18T16:46:14.007Z,3.83
2019-03-18T16:48:43.320Z,4.60
2019-03-18T16:51:12.459Z,4.57
2019-03-18T16:53:41.571Z,4.53
2019-03-18T16:56:10.659Z,6.23
2019-03-18T16:58:39.750Z,5.00
2019-03-18T17:01:09.180Z,5.47
2019-03-18T17:03:38.268Z,5.10
2019-03-18T17:06:07.360Z,3.70
2019-03-18T17:08:36.460Z,5.63
2019-03-18T17:11:05.880Z,4.40
2019-03-18T17:13:34.980Z,4.20
2019-03-18T17:16:04.161Z,4.47
2019-03-18T17:18:33.242Z,4.57
2019-03-18T17:21:02.688Z,3.80
2019-03-18T17:23:31.785Z,3.67
2019-03-18T17:26:01.175Z,3.90
2019-03-18T17:28:30.253Z,4.50
2019-03-18T17:30:59.379Z,4.60
2019-03-18T17:33:28.480Z,4.33
2019-03-18T17:35:57.619Z,4.50
2019-03-18T17:38:26.722Z,4.17
2019-03-18T17:40:55.920Z,4.57
2019-03-18T17:43:25.016Z,3.67
2019-03-18T17:45:54.116Z,3.47
2019-03-18T17:48:23.213Z,4.87
2019-03-18T17:50:52.308Z,4.27
2019-03-18T17:53:21.394Z,4.70
2019-03-18T17:55:50.525Z,3.20
2019-03-18T17:58:19.629Z,4.10
2019-03-18T18:00:51.904Z,4.90
2019-03-18T18:03:20.997Z,3.80
2019-03-18T18:05:51.446Z,4.10
2019-03-18T18:08:20.864Z,4.40
2019-03-18T18:10:49.972Z,3.17
2019-03-18T18:13:19.064Z,2.90
2019-03-18T18:15:48.166Z,3.10
2019-03-18T18:18:17.576Z,2.43
2019-03-18T18:20:46.677Z,2.03
2019-03-18T18:23:16.062Z,3.40
2019-03-18T18:25:45.404Z,3.60
2019-03-18T18:28:14.504Z,4.10
2019-03-18T18:30:43.710Z,3.73
2019-03-18T18:33:12.797Z,4.00
2019-03-18T18:35:41.912Z,4.40
2019-03-18T18:38:11.048Z,4.83
2019-03-18T18:40:40.193Z,4.67
2019-03-18T18:43:09.288Z,5.47
2019-03-18T18:45:38.402Z,4.30
2019-03-18T18:48:07.484Z,3.90
2019-03-18T18:50:36.588Z,3.57
2019-03-18T18:53:05.671Z,2.83
2019-03-18T18:55:34.772Z,3.00
2019-03-18T18:58:04.021Z,3.10
2019-03-18T19:00:33.124Z,3.30
2019-03-18T19:03:02.613Z,3.70
2019-03-18T19:05:31.707Z,2.93
2019-03-18T19:08:00.780Z,3.17
2019-03-18T19:10:30.137Z,3.07
2019-03-18T19:12:59.223Z,2.60
2019-03-18T19:15:28.408Z,3.40
2019-03-18T19:17:57.492Z,2.60
2019-03-18T19:20:26.600Z,3.33
2019-03-18T19:22:55.706Z,4.30
2019-03-18T19:25:24.814Z,2.90
2019-03-18T19:27:53.976Z,3.03
2019-03-18T19:30:23.256Z,3.87
2019-03-18T19:32:52.600Z,3.90
2019-03-18T19:35:21.861Z,3.87
2019-03-18T19:37:51.122Z,3.40
2019-03-18T19:40:20.248Z,3.50
2019-03-18T19:42:49.439Z,3.43
2019-03-18T19:45:18.917Z,3.53
2019-03-18T19:47:48.000Z,3.73
2019-03-18T19:50:18.220Z,3.87
2019-03-18T19:52:47.389Z,2.90
2019-03-18T19:55:16.560Z,3.67
2019-03-18T19:57:45.699Z,3.53
2019-03-18T20:00:17.304Z,2.90
2019-03-18T20:02:46.740Z,3.70
2019-03-18T20:05:18.816Z,3.80
2019-03-18T20:07:47.446Z,3.47
2019-03-18T20:10:16.588Z,5.10
2019-03-18T20:12:45.750Z,4.37
2019-03-18T20:15:16.618Z,3.60
2019-03-18T20:17:49.993Z,3.67
2019-03-18T20:20:19.204Z,3.23
2019-03-18T20:22:49.601Z,3.97
2019-03-18T20:25:19.093Z,3.70
2019-03-18T20:27:48.457Z,3.50
2019-03-18T20:30:17.575Z,4.17
2019-03-18T20:32:49.222Z,4.40
2019-03-18T20:35:18.360Z,4.30
2019-03-18T20:37:51.364Z,4.00
2019-03-18T20:40:19.532Z,3.50
2019-03-18T20:42:49.692Z,7.90
2019-03-18T20:45:18.929Z,4.20
2019-03-18T20:47:51.080Z,3.43
2019-03-18T20:50:20.408Z,3.53
2019-03-18T20:52:50.767Z,3.53
2019-03-18T20:55:20.029Z,2.93
2019-03-18T20:57:49.568Z,5.20
2019-03-18T21:00:18.812Z,3.73
2019-03-18T21:02:48.738Z,3.90
2019-03-18T21:05:17.900Z,3.33
2019-03-18T21:10:35.388Z,3.77
2019-03-18T21:13:04.690Z,4.27
2019-03-18T21:15:33.892Z,3.70
2019-03-18T21:18:04.263Z,3.43
2019-03-18T21:20:33.370Z,4.57
2019-03-18T21:23:02.514Z,3.63
2019-03-18T21:25:31.648Z,4.53
2019-03-18T21:28:00.761Z,3.90
2019-03-18T21:30:29.867Z,3.60
2019-03-18T21:32:59.389Z,3.33
2019-03-18T21:35:28.476Z,2.27
2019-03-18T21:37:57.632Z,3.43
2019-03-18T21:40:26.743Z,3.80
2019-03-18T21:42:56.047Z,3.70
2019-03-18T21:45:25.187Z,3.70
2019-03-18T21:47:54.388Z,3.97
2019-03-18T21:50:23.534Z,4.23
2019-03-18T21:52:52.695Z,4.43
2019-03-18T21:55:21.843Z,3.70
2019-03-18T21:57:50.986Z,3.17
2019-03-18T22:00:20.257Z,4.00
2019-03-18T22:02:49.427Z,3.80
2019-03-18T22:05:18.583Z,4.07
2019-03-18T22:07:49.008Z,4.03
2019-03-18T22:10:18.303Z,3.50
2019-03-18T22:12:49.312Z,5.00
2019-03-18T22:15:18.431Z,3.40
2019-03-18T22:17:49.330Z,3.20
2019-03-18T22:20:18.551Z,3.20
2019-03-18T22:22:49.352Z,3.33
2019-03-18T22:25:18.876Z,3.93
2019-03-18T22:27:50.577Z,5.10
2019-03-18T22:30:19.818Z,2.70
2019-03-18T22:32:49.642Z,4.57
2019-03-18T22:35:18.750Z,3.97
2019-03-18T22:37:50.502Z,4.50
2019-03-18T22:40:19.729Z,3.50
2019-03-18T22:42:51.080Z,4.50
2019-03-18T22:45:20.243Z,3.73
2019-03-18T22:47:49.900Z,3.57
2019-03-18T22:50:38.463Z,4.00
2019-03-18T22:53:07.573Z,3.73
2019-03-18T22:55:36.976Z,3.60
2019-03-18T22:58:06.072Z,3.27
2019-03-18T23:00:45.934Z,4.67
2019-03-18T23:03:15.479Z,3.30
2019-03-18T23:05:44.560Z,3.20
2019-03-18T23:08:13.717Z,3.50
2019-03-18T23:10:42.863Z,3.83
2019-03-18T23:13:11.942Z,4.17
2019-03-18T23:15:41.053Z,4.03
2019-03-18T23:18:10.147Z,3.50
2019-03-18T23:20:39.253Z,4.23
2019-03-18T23:23:08.336Z,3.40
2019-03-18T23:25:37.435Z,2.83
2019-03-18T23:28:06.527Z,3.83
2019-03-18T23:30:35.641Z,2.80
2019-03-18T23:33:04.724Z,4.47
2019-03-18T23:35:33.875Z,3.37
2019-03-18T23:38:03.045Z,4.10
2019-03-18T23:40:32.140Z,3.70
2019-03-18T23:43:01.252Z,3.53
2019-03-18T23:45:30.334Z,3.10
2019-03-18T23:47:59.439Z,3.27
2019-03-18T23:50:28.520Z,3.10
2019-03-18T23:52:57.628Z,3.43
2019-03-18T23:55:26.783Z,3.83
2019-03-18T23:57:55.879Z,3.33
